Time;durP1;ratioP1;P1;durP2;ratioP2;P2;SDS_P1;SDS_P2;PMS_P1;PMS_P2;Temp;Humidity;BMP_temperature;BMP_pressure;BME280_temperature;BME280_humidity;BME280_pressure;Samples;Min_cycle;Max_cycle;Signal;HPM_P1;HPM_P2
2023/06/23 00:01:58;;;;;;;16.63;9.90;;;16.70;99.90;;;;;;5044226;28;20029;-71
2023/06/23 00:04:24;;;;;;;14.15;9.73;;;16.70;99.90;;;;;;5044147;28;20029;-71
2023/06/23 00:06:50;;;;;;;13.75;8.85;;;16.70;99.90;;;;;;5044408;28;20442;-72
2023/06/23 00:09:18;;;;;;;16.17;9.80;;;16.70;99.90;;;;;;5026591;28;20032;-72
2023/06/23 00:11:44;;;;;;;16.85;10.68;;;16.70;99.90;;;;;;5026277;28;20037;-71
2023/06/23 00:14:11;;;;;;;15.23;10.05;;;16.70;99.90;;;;;;5044373;28;20097;-70
2023/06/23 00:16:36;;;;;;;17.20;10.05;;;16.70;99.90;;;;;;5044200;28;20026;-70
2023/06/23 00:19:03;;;;;;;17.17;9.50;;;16.70;99.90;;;;;;5043660;28;20071;-71
2023/06/23 00:21:28;;;;;;;15.00;9.77;;;16.70;99.90;;;;;;5044377;28;20029;-71
2023/06/23 00:23:55;;;;;;;14.10;9.90;;;16.60;99.90;;;;;;5026305;28;20036;-70
2023/06/23 00:26:23;;;;;;;17.70;10.48;;;16.70;99.90;;;;;;5027055;28;20025;-71
2023/06/23 00:28:49;;;;;;;15.75;10.13;;;16.70;99.90;;;;;;5044355;28;20029;-73
2023/06/23 00:31:15;;;;;;;17.48;10.40;;;16.60;99.90;;;;;;5032033;28;20037;-72
2023/06/23 00:33:40;;;;;;;14.00;10.18;;;16.60;99.90;;;;;;5043895;28;20090;-71
2023/06/23 00:36:06;;;;;;;19.13;10.75;;;16.70;99.90;;;;;;5044151;28;20041;-71
2023/06/23 00:38:33;;;;;;;17.83;10.85;;;16.60;99.90;;;;;;5043355;28;20053;-72
2023/06/23 00:40:59;;;;;;;18.52;9.95;;;16.60;99.90;;;;;;5042348;28;20022;-71
2023/06/23 00:43:25;;;;;;;21.63;10.45;;;16.60;99.90;;;;;;5044108;28;20071;-74
2023/06/23 00:45:50;;;;;;;17.10;9.95;;;16.60;99.90;;;;;;5042825;28;20072;-71
2023/06/23 00:48:17;;;;;;;19.27;10.57;;;16.60;99.90;;;;;;5043744;28;20025;-74
2023/06/23 00:50:43;;;;;;;17.75;10.68;;;16.60;99.90;;;;;;5044381;28;20038;-72
2023/06/23 00:53:09;;;;;;;19.02;10.60;;;16.60;99.90;;;;;;5045984;28;20095;-71
2023/06/23 00:55:38;;;;;;;15.27;9.93;;;16.60;99.90;;;;;;5047412;28;20088;-72
2023/06/23 00:58:08;;;;;;;16.00;10.52;;;16.60;99.90;;;;;;5047652;28;20442;-72
2023/06/23 01:00:33;;;;;;;19.52;9.90;;;16.60;99.90;;;;;;5045772;28;20042;-71
2023/06/23 01:02:59;;;;;;;19.55;10.95;;;16.60;99.90;;;;;;5047298;28;20136;-71
2023/06/23 01:05:37;;;;;;;17.88;10.40;;;16.60;99.90;;;;;;5047668;28;20033;-70
2023/06/23 01:08:25;;;;;;;18.45;10.70;;;16.60;99.90;;;;;;5047284;28;20104;-71
2023/06/23 01:10:56;;;;;;;28.40;12.30;;;16.60;99.90;;;;;;5046207;28;20039;-72
2023/06/23 01:13:49;;;;;;;21.20;11.10;;;16.60;99.90;;;;;;5046297;28;20037;-71
2023/06/23 01:16:21;;;;;;;21.15;11.25;;;16.50;99.90;;;;;;5047380;28;20033;-71
2023/06/23 01:19:04;;;;;;;17.90;11.90;;;16.60;99.90;;;;;;5047196;28;20102;-74
2023/06/23 01:22:07;;;;;;;22.58;12.05;;;16.60;99.90;;;;;;5046937;28;20036;-68
2023/06/23 01:24:56;;;;;;;16.67;11.25;;;16.60;99.90;;;;;;4986026;28;20467;-71
2023/06/23 01:27:24;;;;;;;21.83;12.85;;;16.60;99.90;;;;;;4959281;28;20098;-72
2023/06/23 01:29:52;;;;;;;17.20;10.75;;;16.60;99.90;;;;;;5024420;28;20041;-73
2023/06/23 01:32:22;;;;;;;21.65;12.15;;;16.60;99.90;;;;;;5047266;28;20026;-71
2023/06/23 01:34:53;;;;;;;22.38;11.68;;;16.60;99.90;;;;;;5047009;28;20032;-72
2023/06/23 01:37:27;;;;;;;20.77;11.43;;;16.60;99.90;;;;;;5046783;28;20026;-71
2023/06/23 01:40:14;;;;;;;17.17;10.93;;;16.70;99.90;;;;;;5046830;28;20414;-71
2023/06/23 01:42:50;;;;;;;18.13;11.20;;;16.60;99.90;;;;;;5046461;28;20060;-73
2023/06/23 01:45:17;;;;;;;19.85;12.20;;;16.60;99.90;;;;;;5046971;28;20025;-74
2023/06/23 01:47:48;;;;;;;18.20;12.57;;;16.50;99.90;;;;;;5046871;28;20086;-71
2023/06/23 01:50:16;;;;;;;19.30;11.80;;;16.50;99.90;;;;;;5045110;28;20045;-72
2023/06/23 01:52:44;;;;;;;22.60;12.93;;;16.50;99.90;;;;;;5046739;28;20039;-72
2023/06/23 01:55:11;;;;;;;18.65;12.25;;;16.50;99.90;;;;;;5046427;28;20042;-73
2023/06/23 01:57:38;;;;;;;19.02;12.35;;;16.50;99.90;;;;;;5046184;28;20029;-72
2023/06/23 02:00:11;;;;;;;16.88;12.05;;;16.50;99.90;;;;;;5046554;28;20072;-71
2023/06/23 02:02:38;;;;;;;24.98;13.25;;;16.50;99.90;;;;;;5045912;28;20057;-71
2023/06/23 02:05:04;;;;;;;22.58;12.43;;;16.50;99.90;;;;;;5044757;28;20051;-72
2023/06/23 02:07:32;;;;;;;17.67;12.48;;;16.50;99.90;;;;;;5046173;28;20030;-74
2023/06/23 02:10:00;;;;;;;21.65;13.05;;;16.50;99.90;;;;;;5046316;28;20025;-71
2023/06/23 02:12:26;;;;;;;20.17;12.35;;;16.50;99.90;;;;;;5044580;28;20056;-71
2023/06/23 02:14:52;;;;;;;15.18;11.40;;;16.50;99.90;;;;;;5046341;28;20021;-71
2023/06/23 02:17:21;;;;;;;19.95;11.82;;;16.50;99.90;;;;;;5046486;28;20032;-73
2023/06/23 02:19:49;;;;;;;20.27;11.98;;;16.50;99.90;;;;;;5045737;28;20398;-70
2023/06/23 02:22:19;;;;;;;19.75;12.18;;;16.50;99.90;;;;;;5046327;28;20033;-71
2023/06/23 02:24:47;;;;;;;20.38;12.25;;;16.50;99.90;;;;;;5046209;28;20466;-69
2023/06/23 02:27:13;;;;;;;20.08;12.90;;;16.50;99.90;;;;;;5045726;28;20500;-71
2023/06/23 02:29:40;;;;;;;17.90;11.50;;;16.50;99.90;;;;;;5045838;28;20044;-71
2023/06/23 02:32:07;;;;;;;20.85;11.98;;;16.50;99.90;;;;;;5045160;28;20074;-71
2023/06/23 02:34:35;;;;;;;18.42;11.55;;;16.50;99.90;;;;;;5045572;28;20040;-70
2023/06/23 02:37:04;;;;;;;23.73;12.18;;;16.40;99.90;;;;;;5045765;28;20032;-72
2023/06/23 02:39:33;;;;;;;22.25;12.30;;;16.50;99.90;;;;;;5043893;28;20053;-73
2023/06/23 02:42:00;;;;;;;19.70;12.02;;;16.50;99.90;;;;;;5044332;28;20048;-71
2023/06/23 02:44:39;;;;;;;17.27;11.30;;;16.50;99.90;;;;;;5045826;28;20026;-69
2023/06/23 02:47:12;;;;;;;25.05;11.88;;;16.50;99.90;;;;;;5045196;28;20088;-69
2023/06/23 02:49:38;;;;;;;20.23;11.52;;;16.50;99.90;;;;;;5045493;28;20564;-70
2023/06/23 02:52:06;;;;;;;17.77;11.48;;;16.50;99.90;;;;;;5045707;28;20061;-69
2023/06/23 02:54:37;;;;;;;16.17;11.10;;;16.50;99.90;;;;;;5045231;28;20037;-71
2023/06/23 02:57:05;;;;;;;20.77;12.57;;;16.50;99.90;;;;;;5044155;28;20083;-70
2023/06/23 02:59:32;;;;;;;20.42;12.90;;;16.40;99.90;;;;;;5043540;28;20041;-70
2023/06/23 03:01:59;;;;;;;23.00;13.73;;;16.50;99.90;;;;;;5045037;28;20047;-72
2023/06/23 03:04:25;;;;;;;24.48;14.75;;;16.40;99.90;;;;;;5045233;28;20159;-73
2023/06/23 03:06:52;;;;;;;24.00;14.48;;;16.40;99.90;;;;;;5043940;28;20025;-72
2023/06/23 03:09:17;;;;;;;22.98;13.18;;;16.40;99.90;;;;;;5045112;28;20166;-72
2023/06/23 03:11:43;;;;;;;21.17;13.52;;;16.40;99.90;;;;;;5045241;28;20706;-71
2023/06/23 03:14:09;;;;;;;21.02;12.63;;;16.50;99.90;;;;;;5043786;28;20076;-73
2023/06/23 03:17:01;;;;;;;20.25;12.30;;;16.30;99.90;;;;;;5043637;28;20071;-72
2023/06/23 03:19:51;;;;;;;23.00;12.95;;;16.30;99.90;;;;;;5044889;28;20041;-70
2023/06/23 03:22:24;;;;;;;22.48;13.15;;;16.30;99.90;;;;;;5044381;28;20034;-72
2023/06/23 03:24:54;;;;;;;20.08;12.48;;;16.30;99.90;;;;;;5045079;28;20037;-73
2023/06/23 03:27:22;;;;;;;20.73;13.23;;;16.40;99.90;;;;;;5045107;28;20040;-72
2023/06/23 03:30:05;;;;;;;22.08;13.05;;;16.30;99.90;;;;;;5044611;28;20030;-71
2023/06/23 03:32:35;;;;;;;20.65;12.35;;;16.30;99.90;;;;;;5042653;28;20036;-71
2023/06/23 03:35:06;;;;;;;27.30;14.63;;;16.30;99.90;;;;;;5007192;28;20037;-72
2023/06/23 03:37:33;;;;;;;26.30;14.50;;;16.30;99.90;;;;;;5031246;28;20029;-70
2023/06/23 03:40:06;;;;;;;23.13;14.27;;;16.40;99.90;;;;;;5044563;28;20038;-71
2023/06/23 03:42:41;;;;;;;24.73;15.05;;;16.40;99.90;;;;;;5027077;28;20037;-72
2023/06/23 03:45:08;;;;;;;27.48;16.88;;;16.40;99.90;;;;;;5044619;28;20022;-70
2023/06/23 03:47:36;;;;;;;25.38;15.63;;;16.40;99.90;;;;;;5037133;28;20407;-69
2023/06/23 03:50:24;;;;;;;26.00;15.90;;;16.40;99.90;;;;;;5033233;28;20021;-71
2023/06/23 03:52:50;;;;;;;30.95;16.92;;;16.50;99.90;;;;;;5042588;28;20037;-70
2023/06/23 03:55:20;;;;;;;27.33;16.65;;;16.50;99.90;;;;;;5035153;28;20036;-72
2023/06/23 03:57:49;;;;;;;29.85;16.67;;;16.50;99.90;;;;;;5043847;28;20107;-71
2023/06/23 04:00:17;;;;;;;27.35;16.58;;;16.50;99.90;;;;;;5044128;28;20033;-71
2023/06/23 04:02:45;;;;;;;24.27;15.25;;;16.50;99.90;;;;;;5027530;28;20022;-70
2023/06/23 04:05:13;;;;;;;30.23;16.38;;;16.50;99.90;;;;;;5043401;28;20102;-70
2023/06/23 04:07:40;;;;;;;25.80;16.35;;;16.60;99.90;;;;;;5038947;28;20071;-72
2023/06/23 04:10:08;;;;;;;27.50;17.20;;;16.50;99.90;;;;;;5029112;28;20142;-70
2023/06/23 04:12:35;;;;;;;31.05;16.73;;;16.50;99.90;;;;;;5042862;28;20029;-69
2023/06/23 04:15:03;;;;;;;30.58;16.77;;;16.60;99.90;;;;;;5036256;28;20053;-69
2023/06/23 04:17:31;;;;;;;31.27;17.73;;;16.60;99.90;;;;;;5030663;28;20033;-70
2023/06/23 04:20:00;;;;;;;34.95;17.90;;;16.50;99.90;;;;;;5043732;28;20048;-71
2023/06/23 04:22:27;;;;;;;27.35;17.00;;;16.60;99.90;;;;;;5044019;28;20049;-69
2023/06/23 04:24:56;;;;;;;33.08;18.30;;;16.60;99.90;;;;;;5027623;28;20033;-69
2023/06/23 04:27:25;;;;;;;33.85;18.98;;;16.60;99.90;;;;;;5045517;28;20029;-71
2023/06/23 04:29:52;;;;;;;30.98;19.05;;;16.60;99.90;;;;;;5035910;28;20102;-71
2023/06/23 04:32:19;;;;;;;32.78;18.30;;;16.60;99.90;;;;;;5046731;28;20033;-70
2023/06/23 04:34:44;;;;;;;33.25;19.13;;;16.70;99.90;;;;;;5040203;28;20097;-68
2023/06/23 04:37:37;;;;;;;23.50;14.55;;;16.60;99.90;;;;;;5047655;28;20037;-69
2023/06/23 04:40:21;;;;;;;31.75;18.15;;;16.70;99.90;;;;;;5037754;28;20029;-71
2023/06/23 04:43:13;;;;;;;33.25;17.90;;;16.70;99.90;;;;;;5046020;28;20025;-70
2023/06/23 04:46:03;;;;;;;29.33;18.00;;;16.70;99.90;;;;;;5044266;28;20041;-71
2023/06/23 04:48:34;;;;;;;33.03;18.30;;;16.80;99.90;;;;;;5040569;28;20021;-71
2023/06/23 04:51:05;;;;;;;34.13;19.15;;;16.90;99.90;;;;;;5030052;28;20120;-69
2023/06/23 04:53:37;;;;;;;31.67;18.50;;;16.90;99.90;;;;;;5047578;28;20104;-73
2023/06/23 04:56:05;;;;;;;30.52;18.65;;;16.90;99.90;;;;;;5047776;28;20093;-71
2023/06/23 04:58:35;;;;;;;33.85;19.80;;;16.90;99.90;;;;;;5029528;28;20048;-72
2023/06/23 05:01:03;;;;;;;33.25;19.52;;;16.90;99.90;;;;;;5047305;28;20026;-71
2023/06/23 05:03:30;;;;;;;29.88;16.25;;;16.90;99.90;;;;;;5047842;28;20087;-70
2023/06/23 05:05:58;;;;;;;39.50;18.42;;;16.90;99.90;;;;;;5029579;28;20117;-71
2023/06/23 05:08:25;;;;;;;27.88;16.55;;;16.90;99.90;;;;;;5047337;28;20105;-70
2023/06/23 05:10:52;;;;;;;24.50;15.73;;;17.10;99.90;;;;;;5029877;28;20034;-68
2023/06/23 05:13:19;;;;;;;20.75;14.60;;;17.00;99.90;;;;;;5029508;28;20029;-72
2023/06/23 05:15:47;;;;;;;27.85;15.38;;;16.90;99.90;;;;;;5046655;28;20101;-70
2023/06/23 05:18:16;;;;;;;26.83;17.13;;;16.90;99.90;;;;;;5034954;28;20033;-71
2023/06/23 05:20:42;;;;;;;30.02;17.17;;;16.90;99.90;;;;;;5044671;28;20029;-70
2023/06/23 05:23:11;;;;;;;28.45;17.48;;;17.00;99.90;;;;;;5032848;28;20108;-69
2023/06/23 05:25:37;;;;;;;29.55;17.63;;;17.00;99.90;;;;;;5046715;28;20033;-69
2023/06/23 05:28:05;;;;;;;29.42;16.38;;;17.00;99.90;;;;;;5046984;28;20044;-69
2023/06/23 05:30:35;;;;;;;28.10;17.85;;;17.00;99.90;;;;;;5046951;28;20032;-70
2023/06/23 05:33:02;;;;;;;26.23;15.68;;;17.10;99.90;;;;;;5046901;28;20035;-69
2023/06/23 05:35:30;;;;;;;27.73;16.30;;;17.00;99.90;;;;;;5045585;28;20056;-70
2023/06/23 05:37:57;;;;;;;32.17;16.75;;;17.10;99.90;;;;;;5045856;28;20037;-70
2023/06/23 05:40:23;;;;;;;28.35;17.92;;;17.10;99.90;;;;;;5046449;28;20037;-69
2023/06/23 05:42:48;;;;;;;22.40;15.43;;;17.10;99.90;;;;;;5047169;28;20025;-71
2023/06/23 05:45:14;;;;;;;30.52;17.83;;;17.10;99.90;;;;;;5047226;28;20038;-70
2023/06/23 05:47:51;;;;;;;30.13;17.20;;;17.10;99.90;;;;;;5046375;28;20079;-70
2023/06/23 05:50:23;;;;;;;29.75;18.08;;;17.20;99.90;;;;;;5045926;28;20029;-70
2023/06/23 05:53:02;;;;;;;35.22;18.05;;;17.20;99.90;;;;;;5046746;28;20041;-70
2023/06/23 05:55:31;;;;;;;34.80;18.67;;;17.20;99.90;;;;;;5046321;28;20036;-69
2023/06/23 05:58:06;;;;;;;33.28;18.65;;;17.30;99.90;;;;;;5046597;28;20052;-69
2023/06/23 06:00:40;;;;;;;35.38;19.17;;;17.30;99.90;;;;;;5046102;28;20133;-69
2023/06/23 06:03:09;;;;;;;34.70;18.92;;;17.30;99.90;;;;;;5046601;28;20056;-70
2023/06/23 06:05:38;;;;;;;29.33;18.45;;;17.30;99.90;;;;;;5045273;28;20037;-70
2023/06/23 06:08:05;;;;;;;34.85;19.17;;;17.30;99.90;;;;;;5046116;28;20030;-70
2023/06/23 06:10:31;;;;;;;36.10;17.85;;;17.20;99.90;;;;;;5046135;28;20021;-69
2023/06/23 06:13:00;;;;;;;30.95;18.30;;;17.20;99.90;;;;;;5046286;28;20025;-69
2023/06/23 06:15:26;;;;;;;35.50;18.50;;;17.20;99.90;;;;;;5046211;28;20032;-71
2023/06/23 06:17:53;;;;;;;37.78;19.65;;;17.20;99.90;;;;;;5046548;28;20025;-69
2023/06/23 06:20:21;;;;;;;30.98;17.75;;;17.20;99.90;;;;;;5046285;28;20033;-69
2023/06/23 06:22:50;;;;;;;30.98;18.45;;;17.20;99.90;;;;;;5046182;28;20035;-70
2023/06/23 06:25:15;;;;;;;34.58;20.88;;;17.20;99.90;;;;;;5046655;28;20034;-70
2023/06/23 06:27:44;;;;;;;30.98;19.60;;;17.20;99.90;;;;;;5045713;28;20083;-70
2023/06/23 06:30:11;;;;;;;34.95;19.73;;;17.30;99.90;;;;;;5045632;28;20025;-69
2023/06/23 06:32:39;;;;;;;26.17;17.52;;;17.20;99.90;;;;;;5046031;28;20056;-69
2023/06/23 06:35:08;;;;;;;36.55;19.65;;;17.30;99.90;;;;;;5045482;28;20052;-69
2023/06/23 06:37:36;;;;;;;33.17;19.33;;;17.20;99.90;;;;;;5045885;28;20025;-69
2023/06/23 06:40:06;;;;;;;30.17;19.65;;;17.20;99.90;;;;;;5045626;28;20458;-69
2023/06/23 06:42:32;;;;;;;33.03;19.67;;;17.30;99.90;;;;;;5044377;28;20033;-69
2023/06/23 06:44:58;;;;;;;27.85;17.83;;;17.30;99.90;;;;;;5044457;28;20021;-71
2023/06/23 06:47:25;;;;;;;32.45;19.17;;;17.30;99.90;;;;;;5029595;28;20030;-71
2023/06/23 06:49:53;;;;;;;36.80;20.40;;;17.30;99.90;;;;;;5026386;28;20100;-73
2023/06/23 06:52:21;;;;;;;32.47;19.00;;;17.30;99.90;;;;;;5043512;28;20139;-71
2023/06/23 06:54:47;;;;;;;32.85;18.85;;;17.30;99.90;;;;;;5045688;28;20033;-72
2023/06/23 06:57:12;;;;;;;31.85;17.55;;;17.30;99.90;;;;;;5045243;28;20036;-72
2023/06/23 06:59:38;;;;;;;25.20;16.70;;;17.30;99.90;;;;;;5045124;28;20037;-70
2023/06/23 07:02:06;;;;;;;31.60;18.95;;;17.40;99.90;;;;;;5045045;28;20103;-71
2023/06/23 07:04:32;;;;;;;23.42;14.90;;;17.40;99.90;;;;;;5027149;28;20036;-71
2023/06/23 07:06:57;;;;;;;32.53;19.65;;;17.40;99.90;;;;;;5043068;28;20025;-69
2023/06/23 07:09:23;;;;;;;30.63;18.42;;;17.50;99.90;;;;;;5043491;28;20072;-70
2023/06/23 07:11:50;;;;;;;30.95;20.02;;;17.40;99.90;;;;;;5044260;28;20032;-69
2023/06/23 07:14:16;;;;;;;34.20;20.77;;;17.40;99.90;;;;;;5039820;28;20105;-71
2023/06/23 07:16:41;;;;;;;36.08;20.98;;;17.50;99.90;;;;;;5045278;28;20083;-69
2023/06/23 07:19:07;;;;;;;34.22;20.27;;;17.50;99.90;;;;;;5042539;28;20113;-71
2023/06/23 07:21:32;;;;;;;34.13;19.83;;;17.50;99.90;;;;;;5043432;28;20405;-71
2023/06/23 07:23:58;;;;;;;30.77;19.60;;;17.50;99.90;;;;;;5043751;28;20030;-70
2023/06/23 07:26:24;;;;;;;38.60;21.42;;;17.60;99.90;;;;;;5044071;28;20081;-71
2023/06/23 07:28:49;;;;;;;43.65;23.20;;;17.50;99.90;;;;;;5026371;28;20385;-71
2023/06/23 07:31:15;;;;;;;40.80;22.45;;;17.60;99.90;;;;;;5038415;28;20028;-71
2023/06/23 07:33:41;;;;;;;34.33;20.58;;;17.60;99.90;;;;;;5014561;28;20501;-71
2023/06/23 07:36:07;;;;;;;40.03;21.70;;;17.60;99.90;;;;;;5037596;28;20577;-71
2023/06/23 07:38:33;;;;;;;26.40;16.02;;;17.70;99.90;;;;;;5037040;28;20132;-71
2023/06/23 07:40:58;;;;;;;36.65;20.55;;;17.70;99.90;;;;;;5035040;28;20064;-71
2023/06/23 07:43:24;;;;;;;33.28;19.00;;;17.70;99.90;;;;;;5019005;28;20041;-72
2023/06/23 07:45:49;;;;;;;36.08;19.80;;;17.70;99.90;;;;;;5015327;28;20025;-71
2023/06/23 07:48:15;;;;;;;29.70;17.55;;;17.70;99.90;;;;;;5014813;28;20078;-71
2023/06/23 07:50:40;;;;;;;31.15;20.13;;;17.70;99.90;;;;;;5029830;28;20105;-71
2023/06/23 07:53:06;;;;;;;31.33;19.52;;;17.80;99.90;;;;;;5021635;28;20038;-70
2023/06/23 07:55:31;;;;;;;41.00;21.38;;;17.80;99.90;;;;;;5037217;28;20036;-71
2023/06/23 07:57:57;;;;;;;31.40;19.65;;;17.90;99.90;;;;;;5026231;28;20026;-71
2023/06/23 08:00:23;;;;;;;34.22;20.23;;;17.90;99.90;;;;;;5039624;28;20038;-71
2023/06/23 08:02:49;;;;;;;36.00;20.77;;;17.90;99.90;;;;;;5031519;28;20501;-70
2023/06/23 08:05:15;;;;;;;32.28;19.00;;;17.90;99.90;;;;;;5043758;28;20038;-70
2023/06/23 08:07:40;;;;;;;37.40;19.98;;;17.90;99.90;;;;;;5037489;28;20120;-69
2023/06/23 08:10:06;;;;;;;25.48;17.33;;;17.90;99.90;;;;;;5025545;28;20040;-71
2023/06/23 08:12:32;;;;;;;26.00;16.35;;;17.90;99.90;;;;;;5043606;28;20025;-73
2023/06/23 08:14:58;;;;;;;29.92;18.95;;;17.90;99.90;;;;;;5044041;28;20071;-70
2023/06/23 08:17:23;;;;;;;28.33;17.88;;;17.90;99.90;;;;;;5044434;28;20410;-70
2023/06/23 08:19:49;;;;;;;30.77;18.42;;;17.80;99.90;;;;;;5044208;28;20037;-69
2023/06/23 08:22:16;;;;;;;31.70;18.63;;;17.90;99.90;;;;;;5044037;28;20026;-71
2023/06/23 08:24:41;;;;;;;31.42;17.88;;;18.00;99.90;;;;;;5044507;28;20025;-71
2023/06/23 08:27:07;;;;;;;28.05;17.00;;;18.00;99.90;;;;;;5025585;28;20033;-69
2023/06/23 08:29:33;;;;;;;22.05;14.98;;;17.90;99.90;;;;;;5043938;28;20029;-70
2023/06/23 08:31:58;;;;;;;25.70;15.93;;;18.00;99.90;;;;;;5025169;28;20116;-71
2023/06/23 08:34:24;;;;;;;25.20;15.05;;;18.00;99.90;;;;;;5041840;28;20067;-71
2023/06/23 08:36:49;;;;;;;20.77;12.82;;;18.00;99.90;;;;;;5033787;28;20045;-70
2023/06/23 08:39:15;;;;;;;25.17;15.55;;;18.10;99.90;;;;;;5037326;28;20045;-72
2023/06/23 08:41:41;;;;;;;22.98;15.63;;;18.10;99.90;;;;;;5036610;28;20061;-69
2023/06/23 08:44:13;;;;;;;20.98;14.15;;;18.10;99.90;;;;;;5043889;28;20462;-71
2023/06/23 08:46:41;;;;;;;25.25;16.33;;;18.20;99.90;;;;;;5028256;28;20048;-71
2023/06/23 08:49:13;;;;;;;23.85;16.85;;;18.20;99.90;;;;;;5039880;28;20032;-72
2023/06/23 08:51:40;;;;;;;26.48;16.90;;;18.20;99.90;;;;;;5040284;28;20044;-70
2023/06/23 08:54:06;;;;;;;24.20;16.05;;;18.20;99.90;;;;;;5041275;28;20030;-69
2023/06/23 08:56:32;;;;;;;22.17;15.18;;;18.20;99.90;;;;;;5016483;28;20022;-71
2023/06/23 08:58:58;;;;;;;22.63;15.63;;;18.30;99.90;;;;;;5035582;28;20025;-69
2023/06/23 09:01:23;;;;;;;29.50;17.83;;;18.30;99.90;;;;;;5026377;28;20030;-71
2023/06/23 09:03:50;;;;;;;25.73;17.25;;;18.30;99.90;;;;;;5025449;28;20033;-70
2023/06/23 09:06:16;;;;;;;27.73;17.13;;;18.40;99.90;;;;;;5020199;28;20101;-69
2023/06/23 09:08:42;;;;;;;24.65;16.92;;;18.40;99.90;;;;;;5041205;28;20029;-70
2023/06/23 09:11:08;;;;;;;31.90;18.23;;;18.40;99.90;;;;;;5040787;28;20034;-69
2023/06/23 09:13:40;;;;;;;35.20;19.02;;;18.50;99.90;;;;;;5044917;28;20029;-70
2023/06/23 09:16:09;;;;;;;37.08;20.30;;;18.50;99.90;;;;;;5043938;28;20120;-72
2023/06/23 09:18:38;;;;;;;40.42;21.55;;;18.50;99.90;;;;;;5033080;28;20033;-70
2023/06/23 09:21:05;;;;;;;33.60;19.50;;;18.60;99.90;;;;;;5038984;28;20076;-70
2023/06/23 09:23:31;;;;;;;44.42;20.98;;;18.70;99.90;;;;;;5036094;28;20513;-69
2023/06/23 09:25:57;;;;;;;27.20;18.60;;;18.60;99.90;;;;;;5019400;28;20037;-71
2023/06/23 09:28:43;;;;;;;32.78;20.05;;;18.70;99.90;;;;;;5041523;28;20032;-70
2023/06/23 09:31:16;;;;;;;34.95;19.95;;;18.70;99.90;;;;;;5044820;28;20041;-72
2023/06/23 09:33:52;;;;;;;41.70;22.13;;;18.60;99.90;;;;;;5044512;28;20116;-70
2023/06/23 09:36:21;;;;;;;41.25;20.75;;;18.70;99.90;;;;;;5042642;28;20068;-69
2023/06/23 09:38:49;;;;;;;32.25;19.42;;;18.70;99.90;;;;;;5042715;28;20175;-70
2023/06/23 09:41:18;;;;;;;31.10;20.08;;;18.80;99.90;;;;;;5046088;28;20053;-70
2023/06/23 09:43:46;;;;;;;33.72;20.17;;;18.80;99.90;;;;;;5043997;28;20025;-71
2023/06/23 09:46:16;;;;;;;27.48;17.08;;;18.80;99.90;;;;;;5046240;28;20402;-69
2023/06/23 09:48:44;;;;;;;28.58;18.10;;;18.90;99.90;;;;;;5046824;28;20037;-70
2023/06/23 09:51:10;;;;;;;33.75;16.15;;;18.90;99.90;;;;;;5039892;28;20030;-71
2023/06/23 09:53:37;;;;;;;21.92;15.15;;;19.10;99.90;;;;;;5046195;28;20051;-70
2023/06/23 09:56:05;;;;;;;24.02;16.40;;;19.10;99.90;;;;;;5046844;28;20034;-69
2023/06/23 09:58:35;;;;;;;28.45;16.60;;;19.20;99.90;;;;;;5028471;28;20040;-69
2023/06/23 10:01:03;;;;;;;32.83;16.30;;;19.30;99.90;;;;;;5046623;28;20033;-69
2023/06/23 10:03:29;;;;;;;22.67;14.75;;;19.40;99.90;;;;;;5046434;28;20049;-69
2023/06/23 10:05:59;;;;;;;27.17;16.20;;;19.60;99.90;;;;;;5046113;28;20029;-70
2023/06/23 10:08:27;;;;;;;26.52;13.45;;;19.60;99.90;;;;;;5046289;28;20030;-68
2023/06/23 10:10:53;;;;;;;22.98;13.68;;;19.60;99.90;;;;;;5030636;28;20096;-68
2023/06/23 10:13:21;;;;;;;24.15;14.82;;;19.70;99.90;;;;;;5038720;28;20457;-69
2023/06/23 10:15:46;;;;;;;24.00;14.68;;;19.80;99.90;;;;;;5046526;28;20026;-67
2023/06/23 10:18:13;;;;;;;21.63;13.05;;;19.90;99.90;;;;;;5046373;28;20078;-68
2023/06/23 10:20:39;;;;;;;21.08;13.20;;;20.00;99.90;;;;;;5044577;28;20083;-69
2023/06/23 10:23:05;;;;;;;20.42;13.10;;;20.00;99.90;;;;;;5045522;28;20076;-69
2023/06/23 10:25:38;;;;;;;18.95;12.13;;;20.10;99.90;;;;;;5045929;28;20036;-69
2023/06/23 10:28:09;;;;;;;21.60;13.25;;;20.30;99.90;;;;;;5044229;28;20036;-69
2023/06/23 10:30:35;;;;;;;17.73;12.70;;;20.40;99.90;;;;;;5045962;28;20029;-70
2023/06/23 10:33:03;;;;;;;22.58;12.77;;;20.50;99.90;;;;;;5045877;28;20047;-71
2023/06/23 10:35:30;;;;;;;19.75;13.30;;;20.60;99.90;;;;;;5045682;28;20029;-69
2023/06/23 10:38:03;;;;;;;19.17;13.60;;;20.80;99.90;;;;;;5044625;28;20049;-69
2023/06/23 10:40:35;;;;;;;23.92;14.23;;;20.80;99.90;;;;;;5027650;28;20105;-68
2023/06/23 10:43:01;;;;;;;18.70;13.13;;;20.70;99.90;;;;;;5045788;28;20056;-68
2023/06/23 10:45:27;;;;;;;22.85;13.95;;;20.80;99.90;;;;;;5044126;28;20039;-68
2023/06/23 10:47:53;;;;;;;18.15;12.32;;;20.80;99.90;;;;;;5042330;28;20033;-68
2023/06/23 10:50:20;;;;;;;20.85;13.13;;;20.80;99.90;;;;;;5042131;28;20029;-67
2023/06/23 10:52:46;;;;;;;25.63;15.38;;;20.90;99.90;;;;;;5041380;28;20108;-67
2023/06/23 10:55:41;;;;;;;21.90;12.90;;;21.00;99.90;;;;;;5030687;28;20049;-67
2023/06/23 10:58:16;;;;;;;19.23;13.00;;;21.20;99.90;;;;;;5043275;28;20033;-68
2023/06/23 11:00:58;;;;;;;21.40;13.07;;;21.40;99.90;;;;;;5045311;28;20037;-68
2023/06/23 11:03:27;;;;;;;25.08;13.07;;;21.60;99.90;;;;;;5043724;28;20030;-69
2023/06/23 11:05:54;;;;;;;19.38;12.77;;;21.60;99.90;;;;;;5043902;28;20040;-68
2023/06/23 11:08:27;;;;;;;19.60;12.38;;;21.90;99.90;;;;;;5045228;28;20033;-71
2023/06/23 11:11:00;;;;;;;18.10;10.70;;;22.00;99.90;;;;;;5025994;28;20413;-70
2023/06/23 11:13:41;;;;;;;19.25;11.75;;;22.10;99.90;;;;;;5041411;28;20268;-68
2023/06/23 11:16:17;;;;;;;15.00;11.38;;;22.10;99.90;;;;;;5043833;28;20032;-70
2023/06/23 11:19:01;;;;;;;14.38;10.70;;;22.10;99.90;;;;;;5045109;28;20037;-71
2023/06/23 11:21:30;;;;;;;15.55;10.15;;;22.00;99.90;;;;;;5042546;28;20109;-70
2023/06/23 11:24:18;;;;;;;14.02;9.13;;;22.00;99.90;;;;;;5044418;28;20063;-70
2023/06/23 11:26:44;;;;;;;18.27;11.15;;;21.90;99.90;;;;;;5031102;28;20029;-70
2023/06/23 11:29:12;;;;;;;15.77;9.77;;;21.90;99.90;;;;;;5044021;28;20097;-71
2023/06/23 11:32:12;;;;;;;13.07;8.63;;;22.10;99.90;;;;;;5044770;28;20052;-71
2023/06/23 11:34:57;;;;;;;22.33;9.68;;;22.20;99.90;;;;;;5043310;28;20541;-71
2023/06/23 11:37:31;;;;;;;15.32;9.07;;;22.30;99.90;;;;;;5037242;28;20060;-73
2023/06/23 11:39:56;;;;;;;14.63;10.25;;;22.20;99.90;;;;;;5044663;28;20037;-71
2023/06/23 11:42:23;;;;;;;16.85;10.57;;;22.20;99.90;;;;;;5044827;28;20040;-73
2023/06/23 11:44:49;;;;;;;15.77;11.05;;;22.10;99.90;;;;;;5044270;28;20030;-72
2023/06/23 11:47:15;;;;;;;17.60;11.80;;;22.10;99.90;;;;;;5045089;28;20088;-71
2023/06/23 11:49:41;;;;;;;17.17;12.05;;;22.10;99.90;;;;;;5044482;28;20029;-73
2023/06/23 11:52:07;;;;;;;18.92;13.43;;;22.20;99.90;;;;;;5044359;28;20505;-72
2023/06/23 11:54:37;;;;;;;18.48;12.13;;;22.40;99.90;;;;;;5044554;28;20025;-73
2023/06/23 11:57:03;;;;;;;15.45;10.73;;;22.70;99.90;;;;;;5042057;28;20040;-68
2023/06/23 11:59:36;;;;;;;17.23;11.45;;;23.00;99.90;;;;;;5042907;28;20044;-69
2023/06/23 12:02:04;;;;;;;17.55;11.50;;;23.30;99.90;;;;;;5043693;28;20022;-69
2023/06/23 12:04:31;;;;;;;16.48;11.50;;;23.40;99.90;;;;;;5044219;28;20113;-73
2023/06/23 12:06:59;;;;;;;16.73;10.50;;;23.40;99.90;;;;;;5044035;28;20026;-74
2023/06/23 12:09:25;;;;;;;15.82;9.27;;;23.30;99.90;;;;;;5042480;28;20466;-71
2023/06/23 12:11:52;;;;;;;13.05;9.02;;;23.20;99.90;;;;;;5021885;28;20029;-72
2023/06/23 12:14:17;;;;;;;10.90;8.15;;;23.20;99.90;;;;;;5036636;28;20029;-72
2023/06/23 12:16:43;;;;;;;12.77;8.65;;;23.20;99.90;;;;;;5023652;28;20032;-73
2023/06/23 12:19:09;;;;;;;15.20;8.75;;;23.10;99.90;;;;;;5027795;28;20145;-71
2023/06/23 12:21:39;;;;;;;15.60;9.93;;;23.20;99.90;;;;;;5041808;28;20025;-73
2023/06/23 12:24:07;;;;;;;11.65;7.75;;;23.30;99.90;;;;;;5041571;28;20036;-74
2023/06/23 12:26:33;;;;;;;15.35;7.18;;;23.30;99.90;;;;;;5042965;28;20036;-75
2023/06/23 12:29:09;;;;;;;15.48;7.22;;;23.20;99.90;;;;;;5043203;28;20025;-74
2023/06/23 12:31:35;;;;;;;11.57;7.10;;;23.10;99.90;;;;;;5041568;28;20033;-73
2023/06/23 12:34:01;;;;;;;11.15;8.07;;;23.10;99.90;;;;;;5041201;28;20033;-75
2023/06/23 12:36:27;;;;;;;10.23;7.82;;;23.20;99.90;;;;;;5029082;28;20018;-74
2023/06/23 12:38:56;;;;;;;10.55;7.03;;;23.10;99.90;;;;;;5043811;28;20050;-71